Latest Weather Observations for Victoria River Downs

IDD60801

Issued at 8:31 pm CST Saturday 25 February 2017 (issued every 30 minutes, with the page automatically refreshed every 10 minutes)

About weather observations | Map of weather stations | Latest weather observations for NT | Other Formats
Station Details ID: 014825 Name: VICTORIA RIVER DOWNS Lat: -16.40 Lon: 131.01 Height: 88.5 m
Data from the previous 72 hours. | See also: Recent months at Victoria River Downs
Date/Time
CST
Temp
°C
App
Temp
°C
Dew
Point
°C
Rel
Hum
%
Delta-T
°C
Wind Press
QNH
hPa
Press
MSL
hPa
Rain since
9am
mm
Dir  Spd
km/h
Gust
km/h
Spd
kts
Gust
kts
25/08:30pm 26.3 29.3 20.8 71 3.6 ENE 6 7 3 4 1010.2 - 3.8
25/08:00pm 26.6 29.2 20.4 69 4.1 SE 7 11 4 6 1010.2 - 3.8
25/07:30pm 26.6 29.0 20.9 71 3.8 E 9 13 5 7 1009.9 - 3.8
25/07:00pm 27.0 28.0 20.3 66 4.4 SE 15 22 8 12 1009.2 - 3.8
25/06:30pm 27.1 27.8 19.7 64 4.8 ESE 15 28 8 15 1008.9 - 3.8
25/06:23pm 28.4 26.1 18.5 55 6.4 E 28 35 15 19 1009.2 - 3.8
25/06:13pm 28.4 26.1 18.5 55 6.4 E 28 35 15 19 1009.2 - 3.8
25/06:00pm 32.0 36.0 20.6 51 7.6 CALM 0 9 0 5 1008.4 1007.6 3.8
25/05:30pm 32.7 36.3 21.2 50 7.8 N 4 11 2 6 1007.8 - 3.8
25/05:00pm 32.6 34.8 20.5 49 8.1 E 9 15 5 8 1007.9 - 3.8
25/04:30pm 32.5 35.0 21.0 50 7.7 ESE 9 15 5 8 1008.2 - 3.8
25/04:00pm 32.2 35.0 20.8 51 7.6 NE 7 11 4 6 1008.4 - 3.8
25/03:30pm 32.0 34.6 21.2 52 7.3 ESE 9 15 5 8 1008.8 - 3.8
25/03:00pm 31.7 33.9 20.3 50 7.6 ENE 9 15 5 8 1009.4 1008.9 3.8
25/02:30pm 31.5 34.0 21.1 54 7.0 E 9 17 5 9 1009.7 - 3.8
25/02:00pm 31.1 32.8 20.1 52 7.3 SE 11 17 6 9 1009.9 - 3.8
25/01:30pm 31.0 33.4 20.9 55 6.8 ESE 9 15 5 8 1010.4 - 3.8
25/01:00pm 30.0 32.7 21.4 60 5.8 E 9 15 5 8 1011.1 - 3.8
25/12:30pm 29.5 33.1 23.0 68 4.5 E 9 15 5 8 1011.7 - 3.8
25/12:00pm 28.1 31.9 22.8 73 3.6 NNE 7 17 4 9 1012.1 1011.6 3.8
25/11:30am 27.2 30.7 22.8 77 3.0 N 9 13 5 7 1012.8 - 3.6
25/11:00am 26.5 30.2 23.2 82 2.3 NNE 9 13 5 7 1013.1 - 3.6
25/10:30am 25.7 29.0 23.2 86 1.7 NNE 11 17 6 9 1013.6 - 3.6
25/10:00am 25.1 28.8 23.2 89 1.3 NNE 9 13 5 7 1013.8 - 3.6
25/09:30am 24.2 27.9 22.5 90 1.1 ENE 7 11 4 6 1013.9 - 3.6
25/09:00am 23.4 26.8 21.7 90 1.1 E 6 9 3 5 1014.2 1013.4 31.8
25/08:30am 23.3 26.5 21.6 90 1.1 E 7 9 4 5 1014.0 - 30.0
25/08:00am 23.2 25.9 21.3 89 1.3 N 9 17 5 9 1013.4 - 25.8
25/07:30am 23.5 27.6 21.6 89 1.3 SE 2 13 1 7 1013.0 - 18.2
25/07:00am 23.8 24.0 21.3 86 1.7 E 22 37 12 20 1012.8 - 6.2
25/06:56am 24.3 22.9 22.0 87 1.5 E 32 37 17 20 1012.7 - 3.0
25/06:30am 25.0 29.2 23.1 89 1.3 E 6 11 3 6 1012.0 - 1.4
25/06:00am 24.9 29.8 23.0 89 1.3 NNW 2 11 1 6 1011.3 1010.7 1.4
25/05:30am 24.8 28.7 22.9 89 1.3 WNW 7 9 4 5 1011.1 - 0.4
25/05:00am 24.8 29.9 22.7 88 1.4 CALM 0 0 0 0 1010.9 - 0.4
25/04:30am 24.8 28.7 22.5 87 1.5 E 6 7 3 4 1010.8 - 0.4
25/04:00am 24.7 29.5 22.2 86 1.7 CALM 0 0 0 0 1010.8 - 0.4
25/03:30am 24.7 28.3 22.4 87 1.5 W 7 9 4 5 1010.6 - 0.4
25/03:00am 24.9 28.6 22.6 87 1.6 NW 7 9 4 5 1011.0 1010.5 0.2
25/02:30am 25.0 28.4 22.7 87 1.6 NNW 9 15 5 8 1011.3 - 0.0
25/02:00am 25.5 27.7 22.6 84 2.0 WNW 15 20 8 11 1011.7 - 0.0
25/01:30am 26.0 29.5 22.9 83 2.1 NNW 9 9 5 5 1011.4 - 0.0
25/01:00am 26.2 30.9 22.7 81 2.4 WSW 2 7 1 4 1011.2 - 0.0
25/12:30am 26.3 30.1 22.4 79 2.6 ESE 6 9 3 5 1011.6 - 0.0
25/12:00am 26.1 29.9 22.8 82 2.2 ESE 7 11 4 6 1012.2 1011.7 0.0
 
Date/Time
CST
Temp
°C
App
Temp
°C
Dew
Point
°C
Rel
Hum
%
Delta-T
°C
Wind Press
QNH
hPa
Press
MSL
hPa
Rain since
9am
mm
Dir  Spd
km/h
Gust
km/h
Spd
kts
Gust
kts
24/11:30pm 26.0 - 22.7 82 2.2 - - - - - 1012.5 - 0.0
24/11:00pm 26.1 - 22.0 78 2.8 - - - - - 1012.3 - 0.0
24/10:30pm 26.6 30.6 22.7 79 2.6 ESE 6 7 3 4 1012.2 - 0.0
24/10:00pm 26.4 30.0 22.3 78 2.8 ENE 7 9 4 5 1012.0 - 0.0
24/09:30pm 26.7 30.3 22.3 77 3.0 SE 7 9 4 5 1011.4 - 0.0
24/09:00pm 27.0 30.1 22.2 75 3.2 SE 9 13 5 7 1010.9 1010.1 0.0
24/08:30pm 27.2 30.3 22.2 74 3.4 SE 9 15 5 8 1010.4 - 0.0
24/08:00pm 27.4 30.4 21.9 72 3.7 SE 9 13 5 7 1009.7 - 0.0
24/07:30pm 27.7 31.0 21.5 69 4.2 SE 6 9 3 5 1009.6 - 0.0
24/07:00pm 28.2 31.2 21.2 65 4.7 ESE 7 11 4 6 1009.0 - 0.0
24/06:30pm 28.7 31.5 21.5 65 4.8 E 9 13 5 7 1008.9 - 0.0
24/06:00pm 28.8 30.9 21.0 62 5.2 ESE 11 15 6 8 1009.2 1008.4 0.0
24/05:30pm 28.7 30.4 21.0 63 5.1 ESE 13 20 7 11 1008.9 - 0.0
24/05:00pm 28.7 30.5 21.2 64 5.0 ESE 13 26 7 14 1008.5 - 0.0
24/04:30pm 28.6 29.2 21.1 64 5.0 SE 19 32 10 17 1008.4 - 0.0
24/04:00pm 29.6 31.0 21.0 60 5.7 ESE 15 22 8 12 1008.6 - 0.0
24/03:30pm 30.5 32.9 21.6 59 6.0 ESE 11 19 6 10 1008.5 - 0.0
24/03:00pm 30.7 32.4 20.9 56 6.6 NNE 13 17 7 9 1008.5 1008.1 0.0
24/02:30pm 29.5 30.6 21.2 61 5.6 NE 17 28 9 15 1009.2 - 0.0
24/02:00pm 30.0 31.0 22.2 63 5.3 E 20 30 11 16 1009.7 - 0.0
24/01:30pm 31.0 33.4 23.6 64 5.1 SE 17 28 9 15 1010.1 - 0.0
24/01:00pm 30.0 31.8 23.2 67 4.7 SE 19 28 10 15 1010.4 - 0.0
24/12:30pm 29.7 31.9 23.9 71 4.0 SSE 19 30 10 16 1010.9 - 0.0
24/12:00pm 31.6 34.2 21.2 54 7.0 SE 9 22 5 12 1011.2 1010.7 0.0
24/11:30am 31.2 33.9 21.4 56 6.6 ESE 9 13 5 7 1011.6 - 0.0
24/11:00am 31.6 35.3 22.6 59 6.2 ESE 7 11 4 6 1011.7 - 0.0
24/10:30am 31.0 34.0 22.0 58 6.1 E 9 15 5 8 1012.1 - 0.0
24/10:00am 30.3 33.7 22.7 64 5.2 ESE 9 15 5 8 1012.1 - 0.0
24/09:30am 29.8 32.3 21.7 61 5.5 ESE 11 17 6 9 1012.1 - 0.0
24/09:00am 29.1 31.6 21.8 64 4.9 SE 11 15 6 8 1011.9 1011.2 0.0
24/08:30am 29.0 31.9 22.5 68 4.4 SE 11 15 6 8 1011.8 - 0.0
24/08:00am 27.8 30.7 21.8 70 4.0 SE 9 13 5 7 1011.2 - 0.0
24/07:30am 26.5 30.0 21.9 76 3.1 S 6 11 3 6 1010.6 - 0.0
24/07:00am 25.7 28.8 22.2 81 2.4 SSW 9 13 5 7 1010.3 - 0.0
24/06:30am 25.7 29.5 22.4 82 2.2 S 6 7 3 4 1010.4 - 0.0
24/06:00am 25.8 30.3 22.3 81 2.4 NNW 2 9 1 5 1010.2 1009.5 0.0
24/05:30am 25.5 29.5 22.0 81 2.3 NNW 4 9 2 5 1009.8 - 0.0
24/05:00am 25.6 29.5 21.9 80 2.5 W 4 7 2 4 1009.7 - 0.0
24/04:30am 25.8 29.0 21.7 78 2.7 W 7 7 4 4 1009.4 - 0.0
24/04:00am 25.8 29.3 21.9 79 2.6 WNW 6 9 3 5 1009.2 - 0.0
24/03:30am 26.4 30.8 21.4 74 3.3 CALM 0 0 0 0 1009.3 - 0.0
24/03:00am 26.2 29.7 22.1 78 2.8 W 7 9 4 5 1009.4 1008.6 0.0
24/02:30am 26.4 30.8 21.4 74 3.3 CALM 0 0 0 0 1009.5 - 0.0
24/02:00am 26.8 31.0 20.9 70 3.9 CALM 0 0 0 0 1009.5 - 0.0
24/01:30am 27.6 30.1 20.2 64 4.9 E 7 9 4 5 1009.7 - 0.0
24/01:00am 28.1 30.4 19.9 61 5.4 E 7 9 4 5 1010.0 - 0.0
24/12:30am 28.6 30.5 19.8 59 5.8 E 9 11 5 6 1009.9 - 0.0
24/12:00am 28.4 30.8 20.1 60 5.5 E 7 11 4 6 1010.0 1009.3 0.0
 
Date/Time
CST
Temp
°C
App
Temp
°C
Dew
Point
°C
Rel
Hum
%
Delta-T
°C
Wind Press
QNH
hPa
Press
MSL
hPa
Rain since
9am
mm
Dir  Spd
km/h
Gust
km/h
Spd
kts
Gust
kts
23/11:30pm 29.1 31.3 19.7 57 6.2 E 7 9 4 5 1009.9 - 0.0
23/11:00pm 29.8 32.0 19.5 54 6.7 E 7 9 4 5 1009.9 - 0.0
23/10:30pm 30.4 32.3 19.7 52 7.0 ESE 9 11 5 6 1009.7 - 0.0
23/10:00pm 30.8 32.7 19.8 52 7.3 ESE 9 13 5 7 1009.5 - 0.0
23/09:30pm 28.7 33.4 23.4 73 3.6 ESE 4 9 2 5 1008.9 - 0.0
23/09:00pm 29.6 34.2 21.8 63 5.3 CALM 0 0 0 0 1008.3 1007.6 0.0
23/08:30pm 29.9 33.7 20.2 56 6.4 CALM 0 0 0 0 1007.9 - 0.0
23/08:00pm 30.3 34.9 21.7 60 5.8 CALM 0 0 0 0 1007.8 - 0.0
23/07:30pm 32.1 34.0 16.8 40 9.7 SE 2 6 1 3 1007.4 - 0.0
23/07:00pm 35.0 36.2 16.8 34 11.7 ESE 6 7 3 4 1007.1 - 0.0
23/06:30pm 35.7 36.0 15.9 30 12.6 SSE 9 13 5 7 1006.9 - 0.0
23/06:00pm 36.6 36.4 14.6 27 13.8 SE 9 17 5 9 1006.6 1006.0 0.0
23/05:30pm 36.9 36.2 14.2 25 14.1 SE 11 22 6 12 1006.4 - 0.0
23/05:00pm 37.1 34.7 12.5 23 14.9 SSE 17 30 9 16 1006.3 - 0.0
23/04:30pm 37.1 35.8 13.8 25 14.4 SSE 13 24 7 13 1006.5 - 0.0
23/04:00pm 37.3 36.3 14.6 26 14.2 SSE 13 24 7 13 1006.6 - 0.0
23/03:30pm 37.2 35.4 13.2 23 14.7 SE 15 24 8 13 1006.9 - 0.0
23/03:00pm 37.3 35.7 12.7 23 15.0 SE 13 26 7 14 1007.2 1006.7 0.0
23/02:30pm 37.4 35.7 14.6 25 14.3 SE 17 32 9 17 1007.5 - 0.0
23/02:00pm 37.1 36.6 13.8 25 14.4 S 9 19 5 10 1007.8 - 0.0
23/01:30pm 36.8 35.8 12.3 23 14.8 SSW 9 15 5 8 1008.1 - 0.0
23/01:00pm 36.0 36.0 16.2 31 12.6 WSW 11 15 6 8 1008.6 - 0.0
23/12:30pm 34.9 35.5 16.7 34 11.6 SW 9 15 5 8 1009.0 - 0.0
23/12:00pm 33.8 34.0 14.8 32 11.8 W 7 13 4 7 1009.4 1008.9 0.0
23/11:30am 33.0 32.8 14.6 33 11.3 WSW 9 15 5 8 1009.7 - 0.0
23/11:00am 32.3 32.0 14.4 33 11.0 WSW 9 13 5 7 1010.0 - 0.0
23/10:30am 31.7 31.4 14.4 35 10.6 WSW 9 13 5 7 1010.4 - 0.0
23/10:00am 30.6 30.8 15.8 40 9.2 W 9 13 5 7 1010.6 - 0.0
23/09:30am 28.9 30.1 17.4 49 7.3 SW 7 11 4 6 1010.8 - 0.0
23/09:00am 26.5 29.2 18.6 62 5.1 NNE 2 9 1 5 1011.1 1010.4 0.0
23/08:30am 25.0 28.1 18.7 68 4.0 CALM 0 0 0 0 1011.0 - 0.0
23/08:00am 22.9 26.2 19.1 79 2.4 CALM 0 0 0 0 1010.7 - 0.0
23/07:30am 21.3 24.6 19.2 88 1.3 CALM 0 0 0 0 1010.5 - 0.0
23/07:00am 20.1 22.9 18.0 88 1.3 CALM 0 0 0 0 1010.2 - 0.0
23/06:30am 20.2 23.1 18.1 88 1.3 CALM 0 0 0 0 1009.7 - 0.0
23/06:00am 20.4 23.2 18.0 86 1.5 CALM 0 0 0 0 1009.6 1008.9 0.0
23/05:30am 20.7 23.7 18.5 87 1.4 CALM 0 0 0 0 1009.3 - 0.0
23/05:00am 20.3 22.0 18.1 87 1.4 NNE 6 9 3 5 1008.9 - 0.0
23/04:30am 20.8 23.0 18.4 86 1.5 NNE 4 7 2 4 1008.7 - 0.0
23/04:00am 21.5 23.0 18.9 85 1.6 SE 9 11 5 6 1008.6 - 0.0
23/03:30am 20.8 23.6 18.0 84 1.7 CALM 0 0 0 0 1008.1 - 0.0
23/03:00am 21.2 23.5 17.8 81 2.1 WSW 2 0 1 0 1008.3 1007.8 0.0
23/02:30am 22.4 24.1 18.0 76 2.8 WSW 6 7 3 4 1008.6 - 0.0
23/02:00am 21.7 23.4 18.5 82 2.0 NW 7 9 4 5 1009.1 - 0.0
23/01:30am 22.6 24.1 18.8 79 2.4 NW 9 9 5 5 1009.0 - 0.0
23/01:00am 23.2 24.6 17.9 72 3.3 NW 7 7 4 4 1009.2 - 0.0
23/12:30am 23.6 24.8 18.3 72 3.3 WNW 9 11 5 6 1009.6 - 0.0
23/12:00am 23.7 26.4 18.6 73 3.2 W 2 9 1 5 1009.6 1009.2 0.0
 
Date/Time
CST
Temp
°C
App
Temp
°C
Dew
Point
°C
Rel
Hum
%
Delta-T
°C
Wind Press
QNH
hPa
Press
MSL
hPa
Rain since
9am
mm
Dir  Spd
km/h
Gust
km/h
Spd
kts
Gust
kts
22/11:30pm 24.6 26.0 17.8 66 4.3 W 7 7 4 4 1009.9 - 0.0
22/11:00pm 24.9 26.4 18.1 66 4.3 NW 7 9 4 5 1010.0 - 0.0
22/10:30pm 25.0 27.1 19.4 71 3.6 SW 7 7 4 4 1010.0 - 0.0
22/10:00pm 26.1 28.5 19.7 68 4.2 NNW 6 9 3 5 1009.8 - 0.0
22/09:30pm 25.7 28.6 19.8 70 3.8 WNW 4 7 2 4 1009.6 - 0.0
22/09:00pm 27.0 31.5 21.5 72 3.7 CALM 0 9 0 5 1009.4 1008.7 0.0

Other Formats:

Comma delimited format used in spreadsheet applications
http://www.bom.gov.au/fwo/IDD60801/IDD60801.94232.axf

JavaScript Object Notation format (JSON) in row-major order
http://www.bom.gov.au/fwo/IDD60801/IDD60801.94232.json